Time;durP1;ratioP1;P1;durP2;ratioP2;P2;SDS_P1;SDS_P2;PMS_P1;PMS_P2;Temp;Humidity;BMP_temperature;BMP_pressure;BME280_temperature;BME280_humidity;BME280_pressure;Samples;Min_cycle;Max_cycle;Signal;HPM_P1;HPM_P2
2021/08/10 00:01:41;;;;;;;3.67;3.40;;;29.40;60.00;;;;;;5039789;28;21659;-43
2021/08/10 00:04:12;;;;;;;3.40;3.10;;;29.40;60.10;;;;;;5040480;28;20512;-44
2021/08/10 00:06:43;;;;;;;4.27;3.33;;;29.20;60.60;;;;;;5039218;28;20475;-44
2021/08/10 00:09:14;;;;;;;3.70;3.40;;;29.30;60.10;;;;;;5040144;28;20517;-44
2021/08/10 00:11:47;;;;;;;3.30;3.00;;;29.30;59.70;;;;;;5036951;28;20471;-45
2021/08/10 00:14:18;;;;;;;3.00;2.80;;;29.30;59.80;;;;;;5034898;28;20558;-45
2021/08/10 00:16:49;;;;;;;2.87;2.67;;;29.20;60.60;;;;;;5035539;28;20557;-42
2021/08/10 00:19:20;;;;;;;3.80;3.50;;;29.20;60.20;;;;;;5067213;27;20454;-42
2021/08/10 00:21:53;;;;;;;2.90;2.70;;;29.20;61.40;;;;;;5033341;28;20480;-42
2021/08/10 00:24:24;;;;;;;3.17;2.87;;;29.10;61.50;;;;;;5033424;28;20455;-43
2021/08/10 00:26:57;;;;;;;4.00;3.03;;;29.20;60.70;;;;;;5043096;28;20490;-44
2021/08/10 00:29:28;;;;;;;4.03;3.60;;;29.00;60.00;;;;;;5043277;28;20823;-43
2021/08/10 00:31:59;;;;;;;3.80;3.60;;;28.80;60.70;;;;;;5042123;28;20880;-43
2021/08/10 00:34:30;;;;;;;3.73;3.43;;;28.70;60.00;;;;;;5037608;28;20620;-43
2021/08/10 00:37:01;;;;;;;3.37;3.07;;;28.60;60.80;;;;;;5036176;28;20465;-44
2021/08/10 00:39:32;;;;;;;2.90;2.70;;;28.50;60.00;;;;;;5037908;28;20517;-43
2021/08/10 00:42:05;;;;;;;3.73;3.43;;;28.50;60.00;;;;;;5037721;28;20507;-43
2021/08/10 00:44:36;;;;;;;2.90;2.70;;;28.50;59.80;;;;;;5036170;28;20461;-43
2021/08/10 00:47:07;;;;;;;3.30;3.07;;;28.30;59.40;;;;;;5036369;28;20458;-43
2021/08/10 00:49:38;;;;;;;2.93;2.73;;;28.20;60.60;;;;;;5036521;28;20452;-43
2021/08/10 00:52:10;;;;;;;3.10;2.90;;;28.30;59.20;;;;;;5040198;28;20521;-42
2021/08/10 00:54:41;;;;;;;2.70;2.50;;;28.20;59.20;;;;;;5035078;28;20522;-42
2021/08/10 00:57:13;;;;;;;2.80;2.60;;;28.10;59.00;;;;;;5040033;28;20463;-43
2021/08/10 00:59:44;;;;;;;3.00;2.80;;;28.10;59.00;;;;;;5037136;27;20483;-43
2021/08/10 01:02:15;;;;;;;3.77;3.47;;;28.00;59.30;;;;;;5040082;28;20473;-43
2021/08/10 01:04:47;;;;;;;3.30;3.00;;;28.00;60.30;;;;;;5031738;28;20520;-43
2021/08/10 01:07:23;;;;;;;4.47;3.37;;;28.00;61.30;;;;;;5035153;28;20459;-43
2021/08/10 01:09:59;;;;;;;3.33;3.13;;;28.00;62.60;;;;;;5039358;28;20827;-44
2021/08/10 01:12:39;;;;;;;3.27;3.07;;;27.90;63.70;;;;;;5031781;28;20451;-42
2021/08/10 01:15:14;;;;;;;3.70;3.30;;;27.90;63.90;;;;;;5029798;28;20494;-43
2021/08/10 01:17:52;;;;;;;4.03;3.30;;;27.90;64.10;;;;;;5032013;28;20474;-43
2021/08/10 01:20:55;;;;;;;3.63;3.33;;;27.80;63.90;;;;;;5031577;28;20454;-43
2021/08/10 01:23:29;;;;;;;3.73;3.43;;;27.70;64.60;;;;;;5034749;28;20486;-43
2021/08/10 01:26:04;;;;;;;3.60;3.30;;;27.70;64.90;;;;;;5025899;28;20942;-43
2021/08/10 01:28:46;;;;;;;3.90;3.50;;;27.70;64.60;;;;;;5033282;28;20461;-42
2021/08/10 01:31:25;;;;;;;3.10;2.90;;;27.70;64.40;;;;;;5032590;28;20479;-43
2021/08/10 01:34:02;;;;;;;3.33;2.83;;;27.70;64.60;;;;;;5031651;28;20451;-43
2021/08/10 01:36:36;;;;;;;3.93;3.33;;;27.70;64.80;;;;;;5028240;28;20569;-43
2021/08/10 01:39:08;;;;;;;2.87;2.67;;;27.70;65.20;;;;;;5028083;28;20484;-42
2021/08/10 01:41:41;;;;;;;3.97;3.67;;;27.60;65.00;;;;;;5027745;28;20471;-42
2021/08/10 01:44:13;;;;;;;3.43;3.13;;;27.60;65.10;;;;;;5030956;28;20455;-42
2021/08/10 01:46:48;;;;;;;5.57;3.37;;;27.50;65.00;;;;;;5027159;28;20467;-42
2021/08/10 01:49:21;;;;;;;3.70;3.40;;;27.50;65.30;;;;;;5027032;28;20469;-42
2021/08/10 01:51:53;;;;;;;3.93;3.10;;;27.50;64.90;;;;;;5026614;28;20521;-43
2021/08/10 01:54:24;;;;;;;3.63;3.27;;;27.40;65.00;;;;;;5035362;28;20458;-43
2021/08/10 01:56:56;;;;;;;4.73;3.30;;;27.30;65.50;;;;;;5036573;28;20559;-42
2021/08/10 01:59:28;;;;;;;5.07;3.50;;;27.20;66.40;;;;;;5027764;28;20490;-42
2021/08/10 02:02:01;;;;;;;3.50;3.20;;;27.30;66.50;;;;;;5025966;28;20462;-43
2021/08/10 02:04:33;;;;;;;5.10;3.27;;;27.20;66.60;;;;;;5027446;28;20509;-43
2021/08/10 02:07:05;;;;;;;3.10;2.80;;;27.10;66.70;;;;;;5028919;28;20453;-43
2021/08/10 02:09:37;;;;;;;5.83;3.40;;;27.10;67.10;;;;;;5039019;28;20514;-43
2021/08/10 02:12:10;;;;;;;4.60;3.43;;;27.00;68.00;;;;;;5033448;28;20454;-43
2021/08/10 02:14:41;;;;;;;3.70;2.90;;;27.00;68.90;;;;;;5033575;28;20466;-43
2021/08/10 02:17:17;;;;;;;3.33;3.00;;;27.00;68.20;;;;;;5041234;28;20510;-43
2021/08/10 02:19:47;;;;;;;3.50;3.20;;;27.00;68.30;;;;;;5042461;28;20502;-44
2021/08/10 02:22:22;;;;;;;4.07;3.77;;;26.90;68.80;;;;;;5043299;28;20528;-43
2021/08/10 02:24:57;;;;;;;3.93;3.13;;;26.80;69.00;;;;;;5035974;28;20457;-43
2021/08/10 02:27:32;;;;;;;6.20;3.50;;;26.80;69.60;;;;;;5041761;28;20445;-44
2021/08/10 02:30:08;;;;;;;3.97;3.50;;;26.70;70.10;;;;;;5099610;27;20450;-35
2021/08/10 02:32:43;;;;;;;3.60;3.30;;;26.70;70.60;;;;;;5041345;28;20477;-34
2021/08/10 02:35:17;;;;;;;3.13;2.90;;;26.60;70.10;;;;;;5040980;28;20474;-33
2021/08/10 02:37:49;;;;;;;3.37;3.10;;;26.50;70.60;;;;;;5039893;28;20503;-35
2021/08/10 02:40:22;;;;;;;3.60;3.03;;;26.50;70.30;;;;;;5041479;28;20450;-33
2021/08/10 02:42:56;;;;;;;6.10;2.90;;;26.40;70.00;;;;;;5038123;28;20545;-34
2021/08/10 02:45:28;;;;;;;3.10;2.90;;;26.30;70.40;;;;;;5038397;28;20977;-35
2021/08/10 02:48:02;;;;;;;3.53;3.23;;;26.30;71.00;;;;;;5037067;28;20461;-34
2021/08/10 02:50:34;;;;;;;2.93;2.67;;;26.10;71.20;;;;;;5039566;28;20526;-35
2021/08/10 02:53:06;;;;;;;3.03;2.70;;;26.00;71.90;;;;;;5040151;28;20454;-36
2021/08/10 02:55:41;;;;;;;3.53;3.23;;;25.90;72.10;;;;;;5040456;28;20516;-36
2021/08/10 02:58:18;;;;;;;3.13;2.93;;;25.90;72.30;;;;;;5040399;28;20473;-36
2021/08/10 03:01:02;;;;;;;3.73;3.00;;;25.80;72.90;;;;;;5037856;28;20853;-33
2021/08/10 03:03:36;;;;;;;4.93;3.17;;;25.70;73.20;;;;;;5039433;28;20440;-35
2021/08/10 03:06:09;;;;;;;3.70;3.20;;;25.60;73.40;;;;;;5039618;28;20471;-35
2021/08/10 03:08:46;;;;;;;3.13;2.80;;;25.60;73.30;;;;;;5040301;28;20450;-35
2021/08/10 03:11:18;;;;;;;3.63;3.30;;;25.50;73.60;;;;;;5040510;28;20449;-35
2021/08/10 03:13:51;;;;;;;3.60;3.17;;;25.50;73.60;;;;;;5039865;28;20454;-34
2021/08/10 03:16:24;;;;;;;3.80;3.13;;;25.50;73.60;;;;;;5040848;28;20638;-35
2021/08/10 03:19:01;;;;;;;3.60;3.30;;;25.40;74.20;;;;;;5043763;27;20509;-35
2021/08/10 03:21:32;;;;;;;3.30;3.00;;;25.30;74.20;;;;;;5043601;27;20449;-35
2021/08/10 03:24:07;;;;;;;3.23;3.03;;;25.20;74.80;;;;;;5039897;28;20457;-35
2021/08/10 03:26:39;;;;;;;3.10;2.90;;;25.20;74.80;;;;;;5042016;28;20540;-35
2021/08/10 03:29:11;;;;;;;3.67;3.10;;;25.00;75.60;;;;;;5039845;28;20507;-35
2021/08/10 03:31:43;;;;;;;3.40;3.00;;;25.00;75.70;;;;;;5038360;28;20477;-35
2021/08/10 03:34:17;;;;;;;2.97;2.77;;;25.00;76.00;;;;;;5047573;28;20463;-35
2021/08/10 03:36:49;;;;;;;4.07;3.70;;;24.90;76.20;;;;;;5040799;28;20570;-35
2021/08/10 03:39:21;;;;;;;3.13;2.80;;;24.80;76.60;;;;;;5045439;28;20450;-37
2021/08/10 03:41:53;;;;;;;3.60;3.30;;;24.80;76.90;;;;;;5059806;28;20505;-35
2021/08/10 03:44:25;;;;;;;3.83;3.53;;;24.70;78.50;;;;;;5066849;27;20512;-35
2021/08/10 03:46:56;;;;;;;3.63;3.23;;;24.60;80.50;;;;;;5046913;28;20472;-35
2021/08/10 03:49:30;;;;;;;4.10;3.73;;;24.60;82.70;;;;;;5039454;28;20449;-35
2021/08/10 03:52:01;;;;;;;3.93;3.53;;;24.40;84.30;;;;;;5038893;28;20455;-35
2021/08/10 03:54:32;;;;;;;4.80;3.33;;;24.30;86.10;;;;;;5034010;28;20983;-36
2021/08/10 03:57:04;;;;;;;3.40;3.10;;;24.30;87.50;;;;;;5042014;28;20495;-36
2021/08/10 03:59:36;;;;;;;3.47;3.17;;;24.20;88.20;;;;;;5039292;28;21100;-36
2021/08/10 04:02:07;;;;;;;4.40;3.47;;;24.00;89.70;;;;;;5039643;28;20446;-36
2021/08/10 04:04:42;;;;;;;3.30;3.00;;;24.00;90.20;;;;;;5045965;28;20526;-37
2021/08/10 04:07:14;;;;;;;7.53;3.70;;;23.90;90.40;;;;;;5035808;28;20449;-37
2021/08/10 04:09:47;;;;;;;3.23;2.87;;;23.80;90.60;;;;;;5039046;28;20502;-37
2021/08/10 04:12:18;;;;;;;3.70;3.40;;;23.70;90.80;;;;;;5038589;28;20514;-38
2021/08/10 04:14:50;;;;;;;3.80;3.47;;;23.70;90.80;;;;;;5038832;28;20469;-38
2021/08/10 04:17:21;;;;;;;5.23;3.80;;;23.60;91.00;;;;;;5050535;28;20567;-38
2021/08/10 04:19:56;;;;;;;3.57;3.23;;;23.60;91.00;;;;;;5039616;28;20442;-37
2021/08/10 04:22:28;;;;;;;3.57;3.27;;;23.50;91.30;;;;;;5036056;28;20453;-37
2021/08/10 04:24:59;;;;;;;3.40;3.10;;;23.40;91.30;;;;;;5029958;28;20956;-37
2021/08/10 04:27:30;;;;;;;3.43;3.13;;;23.40;91.60;;;;;;5038237;28;20457;-38
2021/08/10 04:30:01;;;;;;;3.20;2.90;;;23.40;91.50;;;;;;5038696;28;20568;-38
2021/08/10 04:32:33;;;;;;;5.03;3.20;;;23.40;91.50;;;;;;5043237;28;20460;-38
2021/08/10 04:35:06;;;;;;;3.33;3.03;;;23.30;91.60;;;;;;5050294;28;20448;-36
2021/08/10 04:37:38;;;;;;;5.47;3.80;;;23.30;91.80;;;;;;5043881;28;20514;-36
2021/08/10 04:40:10;;;;;;;3.40;3.10;;;23.20;92.00;;;;;;5038705;28;20457;-36
2021/08/10 04:42:41;;;;;;;5.07;3.40;;;23.10;92.30;;;;;;5038415;28;20498;-37
2021/08/10 04:45:13;;;;;;;5.70;3.73;;;23.00;92.60;;;;;;5056620;28;20452;-39
2021/08/10 04:47:44;;;;;;;4.27;3.87;;;23.10;92.50;;;;;;5039193;28;20460;-39
2021/08/10 04:50:17;;;;;;;2.90;2.60;;;23.00;93.00;;;;;;5037786;28;20526;-37
2021/08/10 04:52:49;;;;;;;3.67;3.20;;;23.00;92.80;;;;;;5039264;28;20454;-39
2021/08/10 04:55:20;;;;;;;4.03;2.77;;;22.90;93.10;;;;;;5042095;28;20452;-41
2021/08/10 04:57:51;;;;;;;3.23;3.00;;;22.90;93.10;;;;;;5042934;28;20537;-40
2021/08/10 05:00:23;;;;;;;3.23;2.93;;;22.90;93.10;;;;;;5043824;28;20449;-40
2021/08/10 05:02:54;;;;;;;3.23;3.03;;;22.80;93.30;;;;;;5043321;28;20424;-38
2021/08/10 05:05:28;;;;;;;3.33;3.07;;;22.80;93.70;;;;;;5058083;28;20456;-37
2021/08/10 05:07:59;;;;;;;3.57;3.27;;;22.70;93.70;;;;;;5054987;28;20423;-38
2021/08/10 05:10:30;;;;;;;3.37;3.07;;;22.70;94.10;;;;;;5041573;28;20947;-38
2021/08/10 05:13:01;;;;;;;3.53;3.23;;;22.60;94.50;;;;;;5041998;28;20432;-36
2021/08/10 05:15:32;;;;;;;3.60;3.30;;;22.50;94.40;;;;;;5042501;28;20465;-37
2021/08/10 05:18:03;;;;;;;3.00;2.80;;;22.60;94.30;;;;;;5043138;28;20477;-37
2021/08/10 05:20:36;;;;;;;3.10;2.90;;;22.60;94.30;;;;;;5041568;28;20511;-36
2021/08/10 05:23:07;;;;;;;3.90;3.60;;;22.50;94.40;;;;;;5041210;28;20445;-37
2021/08/10 05:25:38;;;;;;;4.40;3.37;;;22.50;94.60;;;;;;5038151;28;21280;-37
2021/08/10 05:28:10;;;;;;;3.93;3.40;;;22.50;94.60;;;;;;5043497;28;20428;-38
2021/08/10 05:30:41;;;;;;;5.63;3.10;;;22.40;94.90;;;;;;5048841;28;20450;-37
2021/08/10 05:33:12;;;;;;;4.43;2.93;;;22.30;95.00;;;;;;5051599;28;20437;-37
2021/08/10 05:35:45;;;;;;;4.83;3.40;;;22.30;95.00;;;;;;5041105;28;20428;-37
2021/08/10 05:38:16;;;;;;;3.30;2.97;;;22.30;95.10;;;;;;5046299;28;20466;-37
2021/08/10 05:40:47;;;;;;;5.07;2.77;;;22.20;95.40;;;;;;5047167;28;20524;-38
2021/08/10 05:43:18;;;;;;;3.63;3.00;;;22.20;95.30;;;;;;5043032;28;20975;-37
2021/08/10 05:45:50;;;;;;;3.40;3.10;;;22.20;95.30;;;;;;5043310;28;20825;-38
2021/08/10 05:48:22;;;;;;;3.93;2.87;;;22.10;95.50;;;;;;5056452;28;20437;-37
2021/08/10 05:50:55;;;;;;;3.47;3.20;;;22.10;95.40;;;;;;5040867;28;20439;-38
2021/08/10 05:53:26;;;;;;;3.10;2.70;;;22.10;95.70;;;;;;5044195;28;20536;-39
2021/08/10 05:55:57;;;;;;;4.10;3.20;;;22.00;95.70;;;;;;5044912;28;20424;-37
2021/08/10 05:58:29;;;;;;;4.90;3.30;;;22.00;95.80;;;;;;5048715;28;20468;-36
2021/08/10 06:01:00;;;;;;;3.33;2.90;;;21.90;96.20;;;;;;5047882;28;20459;-37
2021/08/10 06:03:31;;;;;;;3.20;2.80;;;21.80;96.40;;;;;;5049894;28;20491;-38
2021/08/10 06:06:04;;;;;;;3.00;2.80;;;21.80;96.30;;;;;;5041500;28;20427;-38
2021/08/10 06:08:35;;;;;;;3.80;3.50;;;21.80;96.30;;;;;;5025315;28;20829;-37
2021/08/10 06:11:07;;;;;;;3.00;2.70;;;21.70;96.30;;;;;;5040714;28;20446;-37
2021/08/10 06:13:38;;;;;;;3.23;2.93;;;21.70;96.80;;;;;;5047048;28;20453;-37
2021/08/10 06:16:09;;;;;;;3.03;2.73;;;21.60;96.90;;;;;;5047034;28;20433;-39
2021/08/10 06:18:40;;;;;;;3.07;2.53;;;21.60;96.90;;;;;;5044842;28;20840;-38
2021/08/10 06:21:13;;;;;;;3.03;2.83;;;21.70;96.70;;;;;;5049600;28;20453;-37
2021/08/10 06:23:44;;;;;;;3.20;2.90;;;21.70;96.50;;;;;;5055549;28;20431;-38
2021/08/10 06:26:15;;;;;;;3.00;2.80;;;21.70;96.80;;;;;;5039468;28;20492;-37
2021/08/10 06:28:47;;;;;;;3.80;3.40;;;21.60;97.10;;;;;;5044515;28;20457;-37
2021/08/10 06:31:19;;;;;;;3.33;3.03;;;21.50;97.30;;;;;;5050700;28;20495;-38
2021/08/10 06:33:51;;;;;;;3.10;2.80;;;21.50;97.30;;;;;;5051123;28;20445;-37
2021/08/10 06:36:23;;;;;;;3.37;3.07;;;21.50;97.30;;;;;;5039827;28;20450;-37
2021/08/10 06:38:54;;;;;;;3.27;3.07;;;21.40;97.60;;;;;;5040421;28;20608;-36
2021/08/10 06:41:25;;;;;;;3.90;3.50;;;21.40;97.80;;;;;;5040057;28;20420;-38
2021/08/10 06:43:57;;;;;;;3.20;3.00;;;21.30;97.80;;;;;;5047619;28;20910;-37
2021/08/10 06:46:29;;;;;;;4.90;3.20;;;21.30;97.90;;;;;;5040009;28;20452;-37
2021/08/10 06:49:00;;;;;;;3.00;2.80;;;21.30;97.80;;;;;;5040813;28;20461;-38
2021/08/10 06:51:33;;;;;;;3.03;2.83;;;21.30;98.10;;;;;;5039365;28;20420;-38
2021/08/10 06:54:04;;;;;;;3.13;2.70;;;21.30;98.20;;;;;;5034015;28;20491;-39
2021/08/10 06:56:35;;;;;;;3.00;2.70;;;21.30;98.50;;;;;;5042607;28;20449;-38
2021/08/10 06:59:06;;;;;;;6.00;3.37;;;21.20;98.60;;;;;;5040474;28;20468;-38
2021/08/10 07:01:40;;;;;;;5.70;3.60;;;21.10;99.30;;;;;;5042408;28;20485;-38
2021/08/10 07:04:14;;;;;;;3.97;3.67;;;21.20;98.70;;;;;;5035355;28;20472;-39
2021/08/10 07:06:47;;;;;;;3.63;3.33;;;21.10;98.80;;;;;;5044411;28;20512;-38
2021/08/10 07:09:18;;;;;;;3.70;3.03;;;21.10;99.10;;;;;;5039378;28;20482;-39
2021/08/10 07:11:49;;;;;;;4.73;3.43;;;21.00;99.30;;;;;;5039803;28;20531;-38
2021/08/10 07:14:21;;;;;;;3.37;2.97;;;21.00;99.50;;;;;;5040874;28;20738;-38
2021/08/10 07:16:52;;;;;;;3.17;2.97;;;21.00;99.70;;;;;;5039211;28;20466;-38
2021/08/10 07:19:23;;;;;;;4.40;3.63;;;21.00;99.80;;;;;;5040015;28;20454;-36
2021/08/10 07:21:56;;;;;;;3.93;3.43;;;21.10;99.70;;;;;;5038402;28;20428;-37
2021/08/10 07:24:27;;;;;;;3.63;3.30;;;21.00;99.70;;;;;;5039133;28;20420;-38
2021/08/10 07:26:58;;;;;;;3.70;3.37;;;21.00;99.90;;;;;;5037613;28;20604;-36
2021/08/10 07:29:30;;;;;;;3.60;3.30;;;21.00;99.90;;;;;;5041759;28;20492;-37
2021/08/10 07:32:02;;;;;;;4.20;3.50;;;21.00;99.90;;;;;;5047751;28;20455;-37
2021/08/10 07:34:33;;;;;;;4.17;3.80;;;21.00;99.90;;;;;;5046067;28;20449;-37
2021/08/10 07:37:18;;;;;;;4.73;3.60;;;20.90;99.90;;;;;;5038795;28;20534;-37
2021/08/10 07:39:50;;;;;;;4.13;3.73;;;20.90;99.90;;;;;;5042750;28;20480;-38
2021/08/10 07:42:21;;;;;;;3.47;3.17;;;20.90;99.90;;;;;;5039969;28;20449;-38
2021/08/10 07:44:52;;;;;;;3.60;3.30;;;20.80;99.90;;;;;;5045072;28;20627;-37
2021/08/10 07:47:23;;;;;;;3.63;3.33;;;20.80;99.90;;;;;;5045569;28;20440;-37
2021/08/10 07:49:54;;;;;;;4.07;3.67;;;20.80;99.90;;;;;;5044808;28;20498;-36
2021/08/10 07:52:27;;;;;;;3.93;3.63;;;20.70;99.90;;;;;;5038088;28;20477;-38
2021/08/10 07:54:58;;;;;;;4.40;3.97;;;20.70;99.90;;;;;;5051908;28;20450;-38
2021/08/10 07:57:29;;;;;;;4.60;3.80;;;20.70;99.90;;;;;;5039423;28;20573;-37
2021/08/10 08:00:00;;;;;;;4.43;4.03;;;20.70;99.90;;;;;;5046355;28;20488;-37
2021/08/10 08:02:31;;;;;;;3.53;3.23;;;20.60;99.90;;;;;;5052550;28;20425;-38
2021/08/10 08:05:03;;;;;;;3.87;3.53;;;20.60;99.90;;;;;;5040164;28;20474;-37
2021/08/10 08:07:36;;;;;;;5.17;3.90;;;20.60;99.90;;;;;;5038587;28;20459;-37
2021/08/10 08:10:08;;;;;;;3.57;3.27;;;20.60;99.90;;;;;;5039263;28;20457;-38
2021/08/10 08:12:39;;;;;;;3.70;3.40;;;20.50;99.90;;;;;;5038815;28;20535;-40
2021/08/10 08:15:11;;;;;;;4.10;3.70;;;20.50;99.90;;;;;;5039520;28;20424;-36
2021/08/10 08:17:42;;;;;;;5.07;4.30;;;20.50;99.90;;;;;;5039268;28;20523;-36
2021/08/10 08:20:20;;;;;;;4.33;4.03;;;20.50;99.90;;;;;;5039020;28;20781;-37
2021/08/10 08:22:53;;;;;;;3.57;3.27;;;20.50;99.90;;;;;;5038840;28;20508;-37
2021/08/10 08:25:24;;;;;;;3.73;3.40;;;20.50;99.90;;;;;;5039354;28;20525;-39
2021/08/10 08:27:55;;;;;;;4.20;3.80;;;20.50;99.90;;;;;;5039294;28;20506;-36
2021/08/10 08:30:45;;;;;;;3.87;3.47;;;20.40;99.90;;;;;;5041561;28;20537;-39
2021/08/10 08:33:16;;;;;;;5.37;3.97;;;20.40;99.90;;;;;;5041567;28;20447;-37
2021/08/10 08:35:47;;;;;;;4.63;3.90;;;20.40;99.90;;;;;;5052535;28;20415;-37
2021/08/10 08:38:21;;;;;;;3.57;3.27;;;20.30;99.90;;;;;;5041443;28;20424;-38
2021/08/10 08:40:53;;;;;;;3.93;3.57;;;20.30;99.90;;;;;;5039681;28;20428;-35
2021/08/10 08:43:24;;;;;;;3.83;3.37;;;20.20;99.90;;;;;;5042436;28;20424;-37
2021/08/10 08:45:55;;;;;;;3.33;3.10;;;20.30;99.90;;;;;;5043092;28;20443;-36
2021/08/10 08:48:27;;;;;;;4.17;3.77;;;20.20;99.90;;;;;;5039025;28;20524;-37
2021/08/10 08:51:01;;;;;;;4.40;3.63;;;20.20;99.90;;;;;;5034643;28;20453;-38
2021/08/10 08:53:36;;;;;;;4.27;3.37;;;20.20;99.90;;;;;;5041837;28;20505;-37
2021/08/10 08:56:07;;;;;;;3.93;3.63;;;20.10;99.90;;;;;;5048675;28;20960;-38
2021/08/10 08:58:38;;;;;;;3.70;3.40;;;20.10;99.90;;;;;;5041903;28;20469;-36
2021/08/10 09:01:13;;;;;;;3.73;3.43;;;20.10;99.90;;;;;;5049151;28;20424;-36
2021/08/10 09:03:44;;;;;;;3.77;3.47;;;20.10;99.90;;;;;;5046521;28;20799;-37
2021/08/10 09:06:16;;;;;;;4.27;3.90;;;20.00;99.90;;;;;;5041547;28;20524;-36
2021/08/10 09:08:52;;;;;;;4.00;3.60;;;20.00;99.90;;;;;;5050579;28;20452;-37
2021/08/10 09:11:24;;;;;;;4.03;3.67;;;19.90;99.90;;;;;;5041960;28;20431;-37
2021/08/10 09:14:01;;;;;;;3.70;3.40;;;19.80;99.90;;;;;;5041978;28;20544;-37
2021/08/10 09:16:33;;;;;;;3.70;3.30;;;19.80;99.90;;;;;;5041782;28;20432;-36
2021/08/10 09:19:05;;;;;;;3.60;3.27;;;19.80;99.90;;;;;;5043194;28;20500;-37
2021/08/10 09:21:36;;;;;;;5.57;3.70;;;19.80;99.90;;;;;;5040403;28;20449;-36
2021/08/10 09:24:14;;;;;;;3.70;3.40;;;19.80;99.90;;;;;;5050090;28;20473;-36
2021/08/10 09:26:45;;;;;;;4.10;3.50;;;19.70;99.90;;;;;;5043569;28;20423;-37
2021/08/10 09:29:16;;;;;;;4.10;3.67;;;19.70;99.90;;;;;;5042148;28;20508;-37
2021/08/10 09:31:48;;;;;;;3.97;3.60;;;19.70;99.90;;;;;;5050498;28;20469;-38
2021/08/10 09:34:22;;;;;;;4.20;3.20;;;19.80;99.90;;;;;;5041991;28;20584;-37
2021/08/10 09:36:54;;;;;;;4.23;3.77;;;19.60;99.90;;;;;;5041046;28;20445;-36
2021/08/10 09:39:33;;;;;;;4.20;3.73;;;19.60;99.90;;;;;;5048375;28;20488;-37
2021/08/10 09:42:08;;;;;;;4.37;3.43;;;19.50;99.90;;;;;;5041325;28;20461;-37
2021/08/10 09:44:41;;;;;;;4.50;4.10;;;19.50;99.90;;;;;;5046339;28;20498;-36
2021/08/10 09:47:12;;;;;;;3.67;3.37;;;19.40;99.90;;;;;;5041603;28;20453;-37
2021/08/10 09:49:47;;;;;;;4.10;3.67;;;19.30;99.90;;;;;;5053987;28;20449;-37
2021/08/10 09:52:28;;;;;;;4.00;3.70;;;19.30;99.90;;;;;;5042012;28;20453;-37
2021/08/10 09:55:13;;;;;;;3.63;3.33;;;19.20;99.90;;;;;;5047830;28;20800;-36
2021/08/10 09:57:59;;;;;;;4.77;3.50;;;19.10;99.90;;;;;;5042505;28;20412;-37
2021/08/10 10:00:40;;;;;;;3.40;3.10;;;19.10;99.90;;;;;;5041990;28;20910;-38
2021/08/10 10:03:18;;;;;;;3.90;3.50;;;19.10;99.90;;;;;;5043577;28;20432;-37
2021/08/10 10:05:50;;;;;;;3.83;3.50;;;19.30;99.90;;;;;;5055370;28;20469;-38
2021/08/10 10:08:23;;;;;;;4.67;4.23;;;19.30;99.90;;;;;;5053550;28;20561;-38
2021/08/10 10:10:57;;;;;;;3.20;3.00;;;19.30;99.90;;;;;;5040912;28;20602;-36
2021/08/10 10:13:29;;;;;;;3.33;3.03;;;19.20;99.90;;;;;;5041578;28;20794;-36
2021/08/10 10:16:01;;;;;;;4.43;4.07;;;19.20;99.90;;;;;;5041119;28;20453;-36
2021/08/10 10:18:33;;;;;;;4.37;3.97;;;19.10;99.90;;;;;;5058178;28;20460;-37
2021/08/10 10:21:04;;;;;;;3.90;3.60;;;19.00;99.90;;;;;;5041620;28;20541;-36
2021/08/10 10:23:36;;;;;;;4.70;3.50;;;18.90;99.90;;;;;;5044540;27;20453;-36
2021/08/10 10:26:11;;;;;;;4.07;3.07;;;18.90;99.90;;;;;;5041876;28;20408;-35
2021/08/10 10:28:42;;;;;;;3.57;3.27;;;18.80;99.90;;;;;;5040525;28;20486;-36
2021/08/10 10:31:14;;;;;;;4.00;3.60;;;18.80;99.90;;;;;;5040934;28;22162;-36
2021/08/10 10:33:46;;;;;;;3.73;3.43;;;18.80;99.90;;;;;;5043188;28;20475;-36
2021/08/10 10:36:17;;;;;;;3.37;3.03;;;18.70;99.90;;;;;;5030225;28;20453;-36
2021/08/10 10:38:49;;;;;;;4.67;3.63;;;18.70;99.90;;;;;;5041124;28;20485;-36
2021/08/10 10:41:23;;;;;;;5.83;3.40;;;18.60;99.90;;;;;;5041050;28;20545;-36
2021/08/10 10:43:55;;;;;;;4.47;4.07;;;18.70;99.90;;;;;;5046852;28;20445;-36
2021/08/10 10:46:31;;;;;;;4.63;3.70;;;18.60;99.90;;;;;;5040493;28;20457;-36
2021/08/10 10:49:04;;;;;;;3.40;3.10;;;18.60;99.90;;;;;;5044196;28;20453;-36
2021/08/10 10:51:37;;;;;;;4.00;3.70;;;18.50;99.90;;;;;;5043902;28;20522;-36
2021/08/10 10:54:27;;;;;;;3.57;3.20;;;18.50;99.90;;;;;;5046855;28;20448;-36
2021/08/10 10:57:01;;;;;;;3.63;3.33;;;18.50;99.90;;;;;;5040908;28;20450;-37
2021/08/10 10:59:39;;;;;;;3.83;3.43;;;18.50;99.90;;;;;;5041014;28;20811;-36
2021/08/10 11:02:22;;;;;;;4.10;3.17;;;18.40;99.90;;;;;;5053788;28;20521;-36
2021/08/10 11:05:28;;;;;;;3.77;3.47;;;18.40;99.90;;;;;;5033807;28;20465;-36
2021/08/10 11:08:00;;;;;;;3.73;3.43;;;18.20;99.90;;;;;;5056788;28;20427;-36
2021/08/10 11:10:42;;;;;;;4.13;3.70;;;18.20;99.90;;;;;;5071426;28;20441;-36
2021/08/10 11:13:37;;;;;;;4.70;3.70;;;18.20;99.90;;;;;;5068412;28;20514;-36
2021/08/10 11:16:12;;;;;;;5.33;3.33;;;18.10;99.90;;;;;;5063764;28;20452;-36
2021/08/10 11:18:44;;;;;;;4.43;4.03;;;18.10;99.90;;;;;;5063729;28;20678;-36
2021/08/10 11:21:26;;;;;;;5.00;4.60;;;18.10;99.90;;;;;;5044895;28;20506;-36
2021/08/10 11:23:57;;;;;;;4.80;4.30;;;18.00;99.90;;;;;;5063733;28;20504;-36
2021/08/10 11:26:43;;;;;;;4.03;3.73;;;17.90;99.90;;;;;;5061816;28;20456;-36
2021/08/10 11:29:41;;;;;;;4.10;3.70;;;18.00;99.90;;;;;;5045076;28;20445;-36
2021/08/10 11:32:38;;;;;;;4.60;3.30;;;18.10;99.90;;;;;;5061609;28;20478;-36
2021/08/10 11:35:34;;;;;;;4.00;3.70;;;18.00;99.90;;;;;;5058334;28;20464;-37
2021/08/10 11:38:14;;;;;;;4.63;4.17;;;18.00;99.90;;;;;;5053966;28;21150;-36
2021/08/10 11:40:56;;;;;;;4.27;3.90;;;17.90;99.90;;;;;;5041052;28;21014;-36
2021/08/10 11:43:36;;;;;;;3.90;3.60;;;17.90;99.90;;;;;;5024343;28;21695;-36
2021/08/10 11:46:15;;;;;;;4.90;4.50;;;17.90;99.90;;;;;;5039416;28;20456;-36
2021/08/10 11:48:51;;;;;;;4.17;3.87;;;17.90;99.90;;;;;;5043458;28;20456;-36
2021/08/10 11:51:24;;;;;;;4.17;3.80;;;17.80;99.90;;;;;;5039590;28;20478;-36
2021/08/10 11:53:56;;;;;;;4.00;3.70;;;17.80;99.90;;;;;;5043631;28;20437;-37
2021/08/10 11:56:29;;;;;;;4.10;3.70;;;17.80;99.90;;;;;;5042877;28;20472;-36
2021/08/10 11:59:02;;;;;;;4.43;4.03;;;17.80;99.90;;;;;;5039082;28;20453;-36
2021/08/10 12:01:38;;;;;;;4.57;4.13;;;17.80;99.90;;;;;;5051750;28;20492;-36
2021/08/10 12:04:14;;;;;;;3.80;3.50;;;17.70;99.90;;;;;;5038588;28;20457;-36
2021/08/10 12:06:47;;;;;;;3.40;3.17;;;17.60;99.90;;;;;;5037808;28;20442;-36
2021/08/10 12:09:19;;;;;;;4.00;3.63;;;17.60;99.90;;;;;;5040629;28;21083;-36
2021/08/10 12:11:55;;;;;;;4.13;3.50;;;17.60;99.90;;;;;;5048473;28;20454;-36
2021/08/10 12:14:28;;;;;;;5.03;3.60;;;17.60;99.90;;;;;;5042525;28;20930;-36
2021/08/10 12:17:03;;;;;;;4.10;3.80;;;17.50;99.90;;;;;;5046995;28;20449;-36
2021/08/10 12:19:36;;;;;;;5.23;3.97;;;17.50;99.90;;;;;;5027834;28;20445;-36
2021/08/10 12:22:09;;;;;;;5.93;4.30;;;17.50;99.90;;;;;;5045383;28;20481;-35
2021/08/10 12:24:41;;;;;;;6.60;4.10;;;17.50;99.90;;;;;;5045186;28;20457;-36
2021/08/10 12:27:13;;;;;;;5.93;4.30;;;17.50;99.90;;;;;;5043703;28;20572;-36
2021/08/10 12:29:46;;;;;;;4.37;3.97;;;17.40;99.90;;;;;;5043157;28;20509;-36
2021/08/10 12:32:25;;;;;;;4.60;4.20;;;17.50;99.90;;;;;;5049369;28;20499;-36
2021/08/10 12:34:56;;;;;;;3.77;3.40;;;17.40;99.90;;;;;;5043395;28;20988;-36
2021/08/10 12:37:30;;;;;;;3.60;3.40;;;17.40;99.90;;;;;;5051325;28;20449;-35
2021/08/10 12:40:03;;;;;;;4.30;3.90;;;17.40;99.90;;;;;;5047469;28;20442;-36
2021/08/10 12:42:39;;;;;;;4.33;3.80;;;17.40;99.90;;;;;;5042862;28;20502;-35
2021/08/10 12:45:11;;;;;;;4.60;4.20;;;17.30;99.90;;;;;;5042463;28;20513;-35
2021/08/10 12:47:44;;;;;;;4.40;4.00;;;17.30;99.90;;;;;;5036456;28;20457;-36
2021/08/10 12:50:25;;;;;;;4.20;3.90;;;17.30;99.90;;;;;;5042149;28;20819;-36
2021/08/10 12:52:57;;;;;;;4.80;4.40;;;17.40;99.90;;;;;;5050940;28;20480;-36
2021/08/10 12:55:49;;;;;;;4.93;4.30;;;17.30;99.90;;;;;;5042478;28;20919;-36
2021/08/10 12:58:20;;;;;;;4.77;4.37;;;17.30;99.90;;;;;;5027860;28;20467;-36
2021/08/10 13:01:05;;;;;;;4.83;4.10;;;17.40;99.90;;;;;;5048755;28;20480;-35
2021/08/10 13:03:38;;;;;;;4.20;3.80;;;17.30;99.90;;;;;;5042119;28;20478;-35
2021/08/10 13:06:24;;;;;;;3.90;3.63;;;17.30;99.90;;;;;;5067047;27;20456;-35
2021/08/10 13:08:58;;;;;;;4.53;4.10;;;17.30;99.90;;;;;;5041932;28;20473;-34
2021/08/10 13:11:29;;;;;;;4.70;4.30;;;17.30;99.90;;;;;;5042181;28;20905;-34
2021/08/10 13:14:08;;;;;;;4.80;4.30;;;17.30;99.90;;;;;;5055215;28;20445;-35
2021/08/10 13:16:41;;;;;;;4.60;4.20;;;17.30;99.90;;;;;;5026509;28;20490;-35
2021/08/10 13:19:16;;;;;;;5.40;4.90;;;17.30;99.90;;;;;;5043071;28;20441;-34
2021/08/10 13:21:49;;;;;;;4.53;4.20;;;17.40;99.90;;;;;;5041286;28;20488;-34